ROMMA est une association bénévole à but non lucratif. Votre soutien est indispensable : ADHERER à ROMMA ou FAIRE un DON

Die - (26, Drôme)

Diois (400 m)   Longitude: 5° 21' 55"E   Latitude: 44° 45' 16"N Station partenaire n°159
 

Détail journalier du     <<     >>

Température Precipitation Humidité Pression Vent Dir Rafale Dir. rafale Ensol.
Heure (°C) (mm) (%) (hPa) (km/h) (km/h) (min)
01:00 2.2094102403NNO0
02:00 1.7094102403NNO0
03:00 1.8094102402NNO0
04:00 1.6095102303NNO0
05:00 0.7095102303NNO0
06:00 0.8095102303NNO0
07:00 1.4096102303NNO0
08:00 1.6096102302NNO0
09:00 1.9096102400NNO0
10:00 3.3095102403N0
11:00 6.308810241NNE5O30
12:00 8.107910232NO6NO20
13:00 9.607510232NNO6NNO0
14:00 11.606810221SSO5SSO40
15:00 11.707010213NNO8NO10
16:00 11.307310211SO6SO0
17:00 11.107410202NO6NO0
18:00 10.307910204NO10NO0
19:00 8.508410211NNE5NO0
20:00 7.908610211NO5NO0
21:00 6.709010211SSO6S0
22:00 6.20.293102205S0
23:00 5.5094102103S0
minuit 5.4095102103S0

Graphique du 25-01-2020

 

Serveur OMMA